KPVW

Hale County Airport

Plainview, Texas, USA
METAR KPVW 162215Z AUTO 25022G28KT 10SM CLR 19/M01 A2997 RMK AO2 T01881011
Observed Flight Rules
Jan-16 @ 22:15 UTC (18 minutes ago) Visual Flight Rules
Wind Visibility Clouds
250° at 22 knots
 Gusting to 28 knots
10 miles
  • Clear skies
Temperatures Readings
Current 19°C / 66°F
Dewpoint -1°C / 30°F
Humidity 26%
Altimeter 29.97" Hg
Pressure 1014.92 hPa
Elevation 1028
METAR KPVW 162215Z AUTO 25022G28KT 10SM CLR 19/M01 A2997 RMK AO2 T01881011
Observed Flight Rules
Jan-16 @ 22:15 UTC
(18 minutes ago)
VFR
Wind Visibility
250° at 22 knots
 Gusting to 28 knots
10 miles
Clouds
  • Clear skies
Temperature Dewpoint
19°C / 66°F -1°C / 30°F
Humidity Altimeter Pressure
26% 29.97" Hg 1014.92 hPa